createdAt,value
2019-02-28T00:00:32.319Z,62.40
2019-02-28T00:03:03.021Z,66.37
2019-02-28T00:05:32.483Z,71.53
2019-02-28T00:08:01.841Z,70.43
2019-02-28T00:10:31.483Z,92.20
2019-02-28T00:13:00.950Z,80.27
2019-02-28T00:15:30.443Z,72.53
2019-02-28T00:17:59.755Z,77.80
2019-02-28T00:20:31.755Z,65.20
2019-02-28T00:23:00.303Z,66.30
2019-02-28T00:25:29.568Z,64.30
2019-02-28T00:27:58.842Z,69.47
2019-02-28T00:30:28.237Z,66.73
2019-02-28T00:32:59.378Z,62.63
2019-02-28T00:35:28.746Z,68.40
2019-02-28T00:37:58.151Z,73.00
2019-02-28T00:40:27.551Z,67.40
2019-02-28T00:42:57.048Z,77.07
2019-02-28T00:45:26.453Z,83.00
2019-02-28T00:47:55.749Z,65.63
2019-02-28T00:50:27.598Z,74.93
2019-02-28T00:52:55.994Z,69.73
2019-02-28T00:55:25.551Z,67.53
2019-02-28T00:57:55.481Z,66.07
2019-02-28T01:00:25.423Z,66.33
2019-02-28T01:02:54.828Z,62.77
2019-02-28T01:05:25.356Z,71.10
2019-02-28T01:07:54.710Z,78.20
2019-02-28T01:10:24.028Z,70.83
2019-02-28T01:12:54.577Z,74.87
2019-02-28T01:15:25.015Z,84.47
2019-02-28T01:17:54.228Z,73.67
2019-02-28T01:20:23.611Z,73.00
2019-02-28T01:22:52.904Z,78.80
2019-02-28T01:25:22.210Z,80.30
2019-02-28T01:27:52.437Z,73.37
2019-02-28T01:30:22.372Z,73.27
2019-02-28T01:32:51.655Z,76.90
2019-02-28T01:35:22.075Z,88.53
2019-02-28T01:37:52.441Z,81.50
2019-02-28T01:40:22.506Z,82.27
2019-02-28T01:42:54.834Z,83.77
2019-02-28T01:45:22.862Z,93.17
2019-02-28T01:47:52.423Z,84.27
2019-02-28T01:50:21.763Z,69.77
2019-02-28T01:52:51.215Z,72.90
2019-02-28T01:55:20.688Z,74.00
2019-02-28T01:57:50.186Z,72.37
2019-02-28T02:00:19.542Z,67.40
2019-02-28T02:02:48.874Z,81.60
2019-02-28T02:05:18.286Z,73.23
2019-02-28T02:07:47.577Z,79.37
2019-02-28T02:10:21.439Z,72.17
2019-02-28T02:12:51.915Z,75.80
2019-02-28T02:15:21.525Z,90.17
2019-02-28T02:17:50.873Z,77.93
2019-02-28T02:20:20.141Z,82.47
2019-02-28T02:22:49.433Z,78.07
2019-02-28T02:25:18.838Z,79.33
2019-02-28T02:27:52.783Z,75.73
2019-02-28T02:30:21.930Z,71.07
2019-02-28T02:32:51.334Z,80.53
2019-02-28T02:35:20.685Z,92.17
2019-02-28T02:37:50.319Z,91.43
2019-02-28T02:40:23.002Z,88.93
2019-02-28T02:42:50.623Z,85.00
2019-02-28T02:45:19.981Z,105.97
2019-02-28T02:47:49.377Z,87.73
2019-02-28T02:50:18.753Z,78.17
2019-02-28T02:52:48.184Z,81.17
2019-02-28T02:55:17.506Z,79.97
2019-02-28T02:57:50.612Z,74.87
2019-02-28T03:00:18.810Z,74.63
2019-02-28T03:02:48.204Z,85.87
2019-02-28T03:05:17.754Z,85.10
2019-02-28T03:07:47.117Z,87.37
2019-02-28T03:10:19.608Z,86.70
2019-02-28T03:12:48.938Z,74.83
2019-02-28T03:15:25.267Z,80.53
2019-02-28T03:17:49.895Z,89.93
2019-02-28T03:20:20.413Z,82.17
2019-02-28T03:22:49.816Z,78.73
2019-02-28T03:25:19.226Z,81.03
2019-02-28T03:27:55.115Z,80.90
2019-02-28T03:30:27.992Z,80.87
2019-02-28T03:32:51.415Z,74.20
2019-02-28T03:35:20.905Z,72.70
2019-02-28T03:37:50.426Z,74.33
2019-02-28T03:40:19.738Z,74.63
2019-02-28T03:42:49.029Z,75.73
2019-02-28T03:45:18.384Z,71.37
2019-02-28T03:47:47.718Z,117.77
2019-02-28T03:50:17.007Z,86.57
2019-02-28T03:52:46.300Z,74.07
2019-02-28T03:55:15.569Z,71.30
2019-02-28T03:57:44.916Z,73.73
2019-02-28T04:00:17.281Z,75.47
2019-02-28T04:02:46.703Z,95.40
2019-02-28T04:05:16.102Z,97.73
2019-02-28T04:07:52.847Z,90.07
2019-02-28T04:10:16.738Z,84.93
2019-02-28T04:12:47.252Z,76.60
2019-02-28T04:15:18.971Z,72.57
2019-02-28T04:17:48.378Z,117.50
2019-02-28T04:20:17.840Z,116.47
2019-02-28T04:22:47.027Z,81.07
2019-02-28T04:25:22.767Z,88.10
2019-02-28T04:27:47.358Z,79.03
2019-02-28T04:30:16.765Z,80.00
2019-02-28T04:32:46.179Z,100.07
2019-02-28T04:35:15.605Z,120.43
2019-02-28T04:37:47.003Z,91.60
2019-02-28T04:40:16.957Z,85.20
2019-02-28T04:42:46.133Z,83.57
2019-02-28T04:45:15.382Z,76.47
2019-02-28T04:47:44.574Z,106.00
2019-02-28T04:50:13.872Z,88.73
2019-02-28T04:52:47.910Z,79.53
2019-02-28T04:55:14.239Z,71.33
2019-02-28T04:57:43.580Z,71.97
2019-02-28T05:00:15.707Z,78.37
2019-02-28T05:02:45.047Z,81.73
2019-02-28T05:05:14.496Z,80.17
2019-02-28T05:07:43.803Z,70.47
2019-02-28T05:10:13.144Z,71.20
2019-02-28T05:12:42.553Z,70.93
2019-02-28T05:15:13.517Z,67.37
2019-02-28T05:17:43.000Z,93.23
2019-02-28T05:20:12.472Z,88.80
2019-02-28T05:22:41.768Z,107.37
2019-02-28T05:25:17.566Z,70.43
2019-02-28T05:27:42.556Z,71.17
2019-02-28T05:30:17.879Z,85.10
2019-02-28T05:32:46.087Z,81.67
2019-02-28T05:35:15.415Z,74.93
2019-02-28T05:37:48.330Z,82.57
2019-02-28T05:40:16.127Z,73.10
2019-02-28T05:42:45.493Z,71.53
2019-02-28T05:45:15.799Z,83.17
2019-02-28T05:47:47.108Z,76.90
2019-02-28T05:50:17.293Z,74.67
2019-02-28T05:52:46.864Z,69.87
2019-02-28T05:55:16.205Z,64.37
2019-02-28T05:57:45.514Z,71.37
2019-02-28T06:00:17.333Z,65.03
2019-02-28T06:02:46.682Z,65.80
2019-02-28T06:05:15.899Z,66.73
2019-02-28T06:07:45.109Z,63.90
2019-02-28T06:10:14.950Z,67.67
2019-02-28T06:12:45.054Z,68.27
2019-02-28T06:15:15.905Z,67.83
2019-02-28T06:17:45.193Z,69.30
2019-02-28T06:20:16.544Z,67.87
2019-02-28T06:22:45.773Z,67.40
2019-02-28T06:25:22.541Z,62.67
2019-02-28T06:27:50.303Z,54.40
2019-02-28T06:30:17.803Z,60.47
2019-02-28T06:32:47.063Z,65.50
2019-02-28T06:35:19.592Z,62.40
2019-02-28T06:37:47.375Z,59.60
2019-02-28T06:40:17.426Z,55.17
2019-02-28T06:42:47.710Z,57.10
2019-02-28T06:45:18.313Z,67.03
2019-02-28T06:47:49.998Z,72.53
2019-02-28T06:50:19.586Z,70.30
2019-02-28T06:52:48.939Z,59.37
2019-02-28T06:55:19.893Z,54.90
2019-02-28T06:57:49.448Z,60.97
2019-02-28T07:00:18.873Z,55.23
2019-02-28T07:02:50.070Z,53.40
2019-02-28T07:05:24.808Z,55.93
2019-02-28T07:07:50.345Z,52.13
2019-02-28T07:10:19.887Z,52.23
2019-02-28T07:12:49.403Z,53.57
2019-02-28T07:15:23.608Z,53.07
2019-02-28T07:17:50.833Z,55.70
2019-02-28T07:20:20.451Z,65.73
2019-02-28T07:22:54.636Z,53.43
2019-02-28T07:25:20.804Z,48.00
2019-02-28T07:27:50.111Z,66.43
2019-02-28T07:30:20.502Z,64.33
2019-02-28T07:32:49.853Z,60.47
2019-02-28T07:35:19.225Z,53.10
2019-02-28T07:37:53.204Z,53.97
2019-02-28T07:40:19.667Z,54.50
2019-02-28T07:42:48.996Z,56.50
2019-02-28T07:45:18.485Z,59.67
2019-02-28T07:47:51.680Z,65.47
2019-02-28T07:50:18.761Z,67.13
2019-02-28T07:52:48.058Z,51.57
2019-02-28T07:55:18.641Z,48.03
2019-02-28T07:57:53.264Z,52.73
2019-02-28T08:00:22.528Z,54.13
2019-02-28T08:02:51.818Z,54.30
2019-02-28T08:05:21.084Z,47.73
2019-02-28T08:07:52.356Z,52.20
2019-02-28T08:10:23.778Z,49.67
2019-02-28T08:12:53.171Z,53.87
2019-02-28T08:15:23.881Z,59.70
2019-02-28T08:17:53.280Z,55.60
2019-02-28T08:20:22.714Z,58.33
2019-02-28T08:22:51.992Z,52.90
2019-02-28T08:25:21.198Z,54.13
2019-02-28T08:27:50.478Z,72.13
2019-02-28T08:30:22.708Z,58.60
2019-02-28T08:32:52.181Z,54.30
2019-02-28T08:35:21.438Z,51.13
2019-02-28T08:37:55.750Z,51.33
2019-02-28T08:40:23.401Z,52.63
2019-02-28T08:42:52.765Z,53.20
2019-02-28T08:45:21.987Z,57.27
2019-02-28T08:47:55.459Z,56.67
2019-02-28T08:50:24.445Z,60.23
2019-02-28T08:52:57.108Z,53.33
2019-02-28T08:55:29.152Z,47.93
2019-02-28T08:58:04.319Z,58.63
2019-02-28T09:00:32.832Z,52.53
2019-02-28T09:03:00.901Z,50.67
2019-02-28T09:05:30.584Z,49.07
2019-02-28T09:07:59.989Z,53.73
2019-02-28T09:10:30.312Z,48.97
2019-02-28T09:12:59.712Z,47.63
2019-02-28T09:15:31.032Z,46.30
2019-02-28T09:18:00.056Z,51.40
2019-02-28T09:20:29.340Z,49.13
2019-02-28T09:23:02.268Z,50.47
2019-02-28T09:25:29.592Z,53.07
2019-02-28T09:28:00.221Z,44.33
2019-02-28T09:30:32.827Z,39.87
2019-02-28T09:33:02.304Z,44.23
2019-02-28T09:35:31.560Z,47.20
2019-02-28T09:38:06.301Z,42.83
2019-02-28T09:40:31.720Z,47.20
2019-02-28T09:43:01.031Z,52.53
2019-02-28T09:45:32.608Z,50.17
2019-02-28T09:48:02.498Z,49.10
2019-02-28T09:50:33.187Z,46.73
2019-02-28T09:53:02.845Z,49.27
2019-02-28T09:55:35.297Z,53.50
2019-02-28T09:58:03.184Z,46.23
2019-02-28T10:00:32.687Z,47.27
2019-02-28T10:03:02.088Z,53.97
2019-02-28T10:05:31.337Z,51.60
2019-02-28T10:08:02.865Z,47.83
2019-02-28T10:10:32.745Z,58.53
2019-02-28T10:13:02.132Z,41.50
2019-02-28T10:15:31.569Z,47.93
2019-02-28T10:18:04.441Z,41.43
2019-02-28T10:20:34.037Z,52.17
2019-02-28T10:23:03.285Z,45.30
2019-02-28T10:25:32.747Z,44.87
2019-02-28T10:28:02.905Z,44.83
2019-02-28T10:30:32.790Z,46.40
2019-02-28T10:33:02.277Z,38.93
2019-02-28T10:35:33.473Z,48.33
2019-02-28T10:38:02.608Z,38.23
2019-02-28T10:40:32.030Z,39.17
2019-02-28T10:43:01.332Z,52.97
2019-02-28T10:45:31.147Z,43.13
2019-02-28T10:48:03.958Z,40.63
2019-02-28T10:50:33.739Z,41.07
2019-02-28T10:53:05.953Z,40.80
2019-02-28T10:55:36.638Z,51.67
2019-02-28T10:58:06.112Z,40.80
2019-02-28T11:00:39.553Z,40.93
2019-02-28T11:03:08.941Z,41.00
2019-02-28T11:05:40.490Z,39.47
2019-02-28T11:08:14.764Z,37.60
2019-02-28T11:10:45.402Z,41.43
2019-02-28T11:13:17.376Z,44.20
2019-02-28T11:15:48.312Z,43.57
2019-02-28T11:18:18.719Z,42.70
2019-02-28T11:20:48.064Z,35.37
2019-02-28T11:23:17.370Z,42.97
2019-02-28T11:25:46.644Z,41.07
2019-02-28T11:28:16.267Z,35.13
2019-02-28T11:30:47.995Z,38.10
2019-02-28T11:33:18.495Z,43.00
2019-02-28T11:35:47.870Z,37.03
2019-02-28T11:38:20.395Z,42.50
2019-02-28T11:40:54.690Z,56.23
2019-02-28T11:43:19.239Z,49.90
2019-02-28T11:45:48.638Z,43.00
2019-02-28T11:48:22.455Z,44.30
2019-02-28T11:50:52.876Z,43.53
2019-02-28T11:53:22.385Z,71.67
2019-02-28T11:55:53.392Z,43.93
2019-02-28T11:58:22.925Z,43.27
2019-02-28T12:00:53.443Z,39.53
2019-02-28T12:03:23.061Z,43.30
2019-02-28T12:05:52.394Z,41.60
2019-02-28T12:08:22.460Z,44.67
2019-02-28T12:10:51.978Z,40.80
2019-02-28T12:13:21.491Z,39.97
2019-02-28T12:15:50.890Z,45.93
2019-02-28T12:18:20.394Z,40.90
2019-02-28T12:20:49.901Z,41.80
2019-02-28T12:23:22.913Z,44.50
2019-02-28T12:25:50.089Z,42.67
2019-02-28T12:28:19.535Z,37.87
2019-02-28T12:30:48.942Z,42.77
2019-02-28T12:33:18.706Z,43.60
2019-02-28T12:35:49.485Z,46.10
2019-02-28T12:38:18.884Z,50.00
2019-02-28T12:40:49.506Z,43.97
2019-02-28T12:43:19.121Z,43.87
2019-02-28T12:45:48.481Z,41.93
2019-02-28T12:48:17.927Z,47.73
2019-02-28T12:50:47.285Z,44.23
2019-02-28T12:53:16.627Z,38.37
2019-02-28T12:55:45.984Z,46.60
2019-02-28T12:58:15.351Z,48.07
2019-02-28T13:00:46.309Z,43.67
2019-02-28T13:03:20.177Z,47.73
2019-02-28T13:05:49.294Z,48.07
2019-02-28T13:08:18.677Z,48.53
2019-02-28T13:10:47.986Z,46.93
2019-02-28T13:13:17.264Z,46.20
2019-02-28T13:15:46.841Z,41.43
2019-02-28T13:18:16.202Z,51.90
2019-02-28T13:20:45.505Z,46.20
2019-02-28T13:23:17.037Z,48.57
2019-02-28T13:25:46.027Z,46.73
2019-02-28T13:28:17.821Z,49.13
2019-02-28T13:30:50.527Z,40.73
2019-02-28T13:33:17.654Z,54.00
2019-02-28T13:35:47.742Z,50.53
2019-02-28T13:38:19.517Z,46.73
2019-02-28T13:40:49.036Z,48.97
2019-02-28T13:43:21.077Z,50.23
2019-02-28T13:45:50.790Z,46.90
2019-02-28T13:48:26.012Z,50.10
2019-02-28T13:50:51.520Z,41.97
2019-02-28T13:53:23.260Z,51.03
2019-02-28T13:55:52.671Z,50.63
2019-02-28T13:58:23.318Z,53.77
2019-02-28T14:00:52.628Z,35.33
2019-02-28T14:03:22.012Z,53.23
2019-02-28T14:05:51.511Z,48.23
2019-02-28T14:08:21.032Z,48.80
2019-02-28T14:10:50.325Z,40.57
2019-02-28T14:13:19.728Z,52.60
2019-02-28T14:15:52.572Z,49.30
2019-02-28T14:18:21.702Z,47.93
2019-02-28T14:20:51.082Z,49.00
2019-02-28T14:23:21.507Z,49.77
2019-02-28T14:25:51.024Z,50.17
2019-02-28T14:28:20.397Z,51.37
2019-02-28T14:30:49.663Z,52.03
2019-02-28T14:33:19.681Z,48.50
2019-02-28T14:35:51.106Z,47.73
2019-02-28T14:38:25.957Z,48.20
2019-02-28T14:40:54.756Z,48.53
2019-02-28T14:43:24.111Z,42.70
2019-02-28T14:45:53.387Z,50.00
2019-02-28T14:48:22.932Z,45.37
2019-02-28T14:50:53.966Z,51.50
2019-02-28T14:53:23.107Z,54.00
2019-02-28T14:55:52.806Z,52.50
2019-02-28T14:58:22.491Z,56.13
2019-02-28T15:00:52.022Z,53.73
2019-02-28T15:03:21.391Z,48.90
2019-02-28T15:05:52.323Z,53.63
2019-02-28T15:08:21.545Z,59.17
2019-02-28T15:10:50.907Z,57.20
2019-02-28T15:13:20.216Z,54.10
2019-02-28T15:15:53.095Z,58.53
2019-02-28T15:18:20.561Z,58.60
2019-02-28T15:20:50.071Z,60.83
2019-02-28T15:23:19.447Z,64.53
2019-02-28T15:25:50.799Z,60.33
2019-02-28T15:28:20.840Z,55.33
2019-02-28T15:30:50.192Z,60.97
2019-02-28T15:33:19.465Z,60.60
2019-02-28T15:35:49.729Z,60.27
2019-02-28T15:38:21.107Z,64.97
2019-02-28T15:40:50.663Z,65.50
2019-02-28T15:43:19.910Z,66.50
2019-02-28T15:45:49.173Z,70.63
2019-02-28T15:48:18.514Z,72.20
2019-02-28T15:50:51.187Z,65.10
2019-02-28T15:53:20.711Z,65.30
2019-02-28T15:55:49.945Z,65.17
2019-02-28T15:58:20.299Z,64.77
2019-02-28T16:00:49.824Z,66.17
2019-02-28T16:03:19.183Z,70.00
2019-02-28T16:05:48.622Z,67.67
2019-02-28T16:08:18.101Z,65.50
2019-02-28T16:10:53.371Z,62.73
2019-02-28T16:13:18.510Z,64.20
2019-02-28T16:15:49.963Z,54.70
2019-02-28T16:18:18.906Z,53.93
2019-02-28T16:20:48.282Z,60.70
2019-02-28T16:23:17.570Z,58.67
2019-02-28T16:25:47.761Z,63.23
2019-02-28T16:28:17.191Z,59.47
2019-02-28T16:30:46.536Z,62.07
2019-02-28T16:33:15.889Z,56.70
2019-02-28T16:35:46.801Z,54.80
2019-02-28T16:38:16.028Z,51.10
2019-02-28T16:40:45.486Z,51.90
2019-02-28T16:43:17.414Z,59.47
2019-02-28T16:45:48.487Z,56.30
2019-02-28T16:48:17.857Z,50.07
2019-02-28T16:50:47.170Z,51.93
2019-02-28T16:53:16.567Z,56.07
2019-02-28T16:55:45.820Z,52.77
2019-02-28T16:58:15.058Z,50.73
2019-02-28T17:00:46.308Z,53.03
2019-02-28T17:03:16.415Z,52.10
2019-02-28T17:05:45.630Z,45.57
2019-02-28T17:08:15.533Z,51.67
2019-02-28T17:10:45.984Z,53.03
2019-02-28T17:13:18.049Z,53.00
2019-02-28T17:15:49.091Z,58.93
2019-02-28T17:18:21.576Z,50.30
2019-02-28T17:20:51.980Z,50.83
2019-02-28T17:23:21.337Z,53.10
2019-02-28T17:25:53.592Z,60.63
2019-02-28T17:28:23.476Z,53.43
2019-02-28T17:30:54.470Z,54.60
2019-02-28T17:33:23.891Z,57.70
2019-02-28T17:35:53.423Z,54.10
2019-02-28T17:38:23.896Z,59.17
2019-02-28T17:40:53.554Z,52.77
2019-02-28T17:43:24.599Z,57.10
2019-02-28T17:45:53.818Z,54.77
2019-02-28T17:48:26.542Z,58.77
2019-02-28T17:50:59.169Z,59.40
2019-02-28T17:53:31.823Z,57.20
2019-02-28T17:56:04.889Z,55.57
2019-02-28T17:58:37.558Z,60.53
2019-02-28T18:01:10.280Z,53.20
2019-02-28T18:03:45.035Z,60.47
2019-02-28T18:06:17.724Z,55.37
2019-02-28T18:08:50.307Z,56.20
2019-02-28T18:11:22.946Z,57.37
2019-02-28T18:13:56.129Z,60.57
2019-02-28T18:16:28.694Z,61.27
2019-02-28T18:19:01.208Z,62.20
2019-02-28T18:21:33.717Z,54.47
2019-02-28T18:24:06.444Z,57.13
2019-02-28T18:26:39.517Z,60.40
2019-02-28T18:29:12.137Z,53.97
2019-02-28T18:31:42.002Z,56.93
2019-02-28T18:34:11.570Z,45.57
2019-02-28T18:36:43.544Z,47.00
2019-02-28T18:39:12.405Z,43.97
2019-02-28T18:41:43.025Z,41.10
2019-02-28T18:44:12.830Z,42.33
2019-02-28T18:46:42.154Z,39.07
2019-02-28T18:49:11.607Z,44.80
2019-02-28T18:51:41.047Z,39.93
2019-02-28T18:54:10.427Z,42.83
2019-02-28T18:56:39.837Z,39.90
2019-02-28T18:59:09.052Z,36.03
2019-02-28T19:01:38.330Z,32.07
2019-02-28T19:04:08.031Z,31.97
2019-02-28T19:06:38.459Z,24.00
2019-02-28T19:09:11.933Z,32.50
2019-02-28T19:11:41.471Z,32.03
2019-02-28T19:14:10.947Z,31.40
2019-02-28T19:16:40.250Z,31.60
2019-02-28T19:19:09.566Z,30.77
2019-02-28T19:21:38.963Z,36.93
2019-02-28T19:24:08.427Z,37.87
2019-02-28T19:26:37.722Z,43.23
2019-02-28T19:29:07.418Z,38.07
2019-02-28T19:31:36.824Z,31.17
2019-02-28T19:34:07.306Z,25.63
2019-02-28T19:36:36.665Z,29.90
2019-02-28T19:39:08.779Z,30.13
2019-02-28T19:41:38.248Z,31.23
2019-02-28T19:44:07.600Z,26.23
2019-02-28T19:46:36.971Z,24.83
2019-02-28T19:49:06.308Z,26.00
2019-02-28T19:51:35.686Z,28.37
2019-02-28T19:54:06.036Z,24.57
2019-02-28T19:56:35.309Z,22.67
2019-02-28T19:59:04.533Z,22.23
2019-02-28T20:01:33.838Z,21.27
2019-02-28T20:04:05.034Z,17.27
2019-02-28T20:06:34.288Z,24.60
2019-02-28T20:09:04.589Z,23.50
2019-02-28T20:11:34.914Z,24.47
2019-02-28T20:14:04.171Z,20.83
2019-02-28T20:16:33.534Z,15.10
2019-02-28T20:19:02.739Z,15.30
2019-02-28T20:21:32.100Z,13.17
2019-02-28T20:24:01.512Z,12.03
2019-02-28T20:26:30.844Z,12.00
2019-02-28T20:29:00.182Z,8.73
2019-02-28T20:31:29.639Z,12.00
2019-02-28T20:33:58.940Z,10.13
2019-02-28T20:36:28.172Z,9.63
2019-02-28T20:38:57.526Z,10.00
2019-02-28T20:41:26.898Z,7.23
2019-02-28T20:43:57.171Z,9.80
2019-02-28T20:46:26.493Z,7.67
2019-02-28T20:48:55.774Z,11.57
2019-02-28T20:51:25.049Z,9.67
2019-02-28T20:53:54.301Z,7.20
2019-02-28T20:56:23.633Z,7.23
2019-02-28T20:58:53.040Z,7.50
2019-02-28T21:01:22.446Z,6.83
2019-02-28T21:03:51.768Z,9.83
2019-02-28T21:06:21.055Z,6.97
2019-02-28T21:08:50.418Z,11.77
2019-02-28T21:11:19.702Z,11.57
2019-02-28T21:13:50.141Z,8.77
2019-02-28T21:16:19.345Z,9.50
2019-02-28T21:18:48.656Z,7.77
2019-02-28T21:21:18.156Z,6.37
2019-02-28T21:23:47.419Z,8.97
2019-02-28T21:26:16.675Z,11.63
2019-02-28T21:28:46.166Z,9.37
2019-02-28T21:31:15.428Z,9.03
2019-02-28T21:33:44.788Z,8.67
2019-02-28T21:36:14.161Z,6.63
2019-02-28T21:38:43.683Z,5.53
2019-02-28T21:41:13.303Z,8.33
2019-02-28T21:43:42.833Z,8.57
2019-02-28T21:46:12.210Z,11.13
2019-02-28T21:48:41.623Z,5.20
2019-02-28T21:51:11.017Z,7.90
2019-02-28T21:53:40.622Z,5.90
2019-02-28T21:56:10.304Z,3.70
2019-02-28T21:58:39.845Z,4.23
2019-02-28T22:01:09.260Z,7.37
2019-02-28T22:03:38.673Z,6.03
2019-02-28T22:06:08.074Z,4.83
2019-02-28T22:08:37.375Z,7.20
2019-02-28T22:11:06.650Z,8.27
2019-02-28T22:13:35.887Z,11.73
2019-02-28T22:16:05.322Z,7.13
2019-02-28T22:18:34.513Z,6.60
2019-02-28T22:21:04.073Z,7.67
2019-02-28T22:23:33.631Z,4.77
2019-02-28T22:26:02.904Z,20.40
2019-02-28T22:28:32.249Z,21.40
2019-02-28T22:31:03.217Z,9.00
2019-02-28T22:33:34.174Z,7.37
2019-02-28T22:36:05.270Z,7.00
2019-02-28T22:38:34.587Z,13.43
2019-02-28T22:41:03.774Z,6.63
2019-02-28T22:43:33.133Z,6.97
2019-02-28T22:46:02.467Z,6.87
2019-02-28T22:48:32.746Z,13.53
2019-02-28T22:51:01.953Z,15.17
2019-02-28T22:53:31.183Z,15.23
2019-02-28T22:56:00.557Z,13.43
2019-02-28T22:58:29.843Z,15.40
2019-02-28T23:01:03.740Z,10.57
2019-02-28T23:03:34.759Z,10.77
2019-02-28T23:06:04.315Z,13.00
2019-02-28T23:08:33.743Z,8.93
2019-02-28T23:11:03.124Z,5.43
2019-02-28T23:13:32.346Z,10.47
2019-02-28T23:16:01.551Z,10.50
2019-02-28T23:18:31.024Z,13.87
2019-02-28T23:21:00.322Z,9.07
2019-02-28T23:23:29.644Z,8.60
2019-02-28T23:26:06.187Z,7.83
2019-02-28T23:28:37.417Z,8.27
2019-02-28T23:31:10.014Z,6.77
2019-02-28T23:33:39.341Z,5.67
2019-02-28T23:36:08.694Z,11.67
2019-02-28T23:38:37.901Z,8.17
2019-02-28T23:41:07.280Z,6.20
2019-02-28T23:43:36.644Z,6.90
2019-02-28T23:46:05.938Z,9.90
2019-02-28T23:48:35.225Z,14.07
2019-02-28T23:51:04.617Z,8.13
2019-02-28T23:53:33.892Z,8.00
2019-02-28T23:56:03.216Z,5.27
2019-02-28T23:58:32.716Z,5.67
